sensor_id;sensor_type;location;lat;lon;timestamp;P1;durP1;ratioP1;P2;durP2;ratioP2
51366;SDS011;37458;49.428;8.646;2022-08-19T00:02:10;17.23;;;12.57;;
51366;SDS011;37458;49.428;8.646;2022-08-19T00:04:36;15.37;;;12.13;;
51366;SDS011;37458;49.428;8.646;2022-08-19T00:07:03;13.87;;;12.10;;
51366;SDS011;37458;49.428;8.646;2022-08-19T00:09:30;15.60;;;12.37;;
51366;SDS011;37458;49.428;8.646;2022-08-19T00:11:57;13.87;;;12.47;;
51366;SDS011;37458;49.428;8.646;2022-08-19T00:14:24;14.17;;;12.20;;
51366;SDS011;37458;49.428;8.646;2022-08-19T00:16:50;12.77;;;11.57;;
51366;SDS011;37458;49.428;8.646;2022-08-19T00:19:18;15.33;;;13.70;;
51366;SDS011;37458;49.428;8.646;2022-08-19T00:21:44;13.30;;;11.87;;
51366;SDS011;37458;49.428;8.646;2022-08-19T00:24:11;13.87;;;12.57;;
51366;SDS011;37458;49.428;8.646;2022-08-19T00:26:38;15.30;;;13.50;;
51366;SDS011;37458;49.428;8.646;2022-08-19T00:29:05;14.27;;;12.77;;
51366;SDS011;37458;49.428;8.646;2022-08-19T00:31:31;18.47;;;13.73;;
51366;SDS011;37458;49.428;8.646;2022-08-19T00:33:57;15.90;;;13.23;;
51366;SDS011;37458;49.428;8.646;2022-08-19T00:36:24;13.97;;;12.67;;
51366;SDS011;37458;49.428;8.646;2022-08-19T00:38:50;15.07;;;12.63;;
51366;SDS011;37458;49.428;8.646;2022-08-19T00:41:18;13.27;;;11.90;;
51366;SDS011;37458;49.428;8.646;2022-08-19T00:46:31;14.37;;;12.97;;
51366;SDS011;37458;49.428;8.646;2022-08-19T00:48:58;15.67;;;13.07;;
51366;SDS011;37458;49.428;8.646;2022-08-19T00:51:25;15.30;;;13.70;;
51366;SDS011;37458;49.428;8.646;2022-08-19T00:53:53;16.13;;;14.40;;
51366;SDS011;37458;49.428;8.646;2022-08-19T00:56:19;15.60;;;14.00;;
51366;SDS011;37458;49.428;8.646;2022-08-19T00:58:45;16.60;;;13.70;;
51366;SDS011;37458;49.428;8.646;2022-08-19T01:01:12;15.07;;;13.47;;
51366;SDS011;37458;49.428;8.646;2022-08-19T01:03:38;14.43;;;12.93;;
51366;SDS011;37458;49.428;8.646;2022-08-19T01:06:04;16.37;;;13.33;;
51366;SDS011;37458;49.428;8.646;2022-08-19T01:08:32;16.43;;;13.63;;
51366;SDS011;37458;49.428;8.646;2022-08-19T01:10:59;14.93;;;13.07;;
51366;SDS011;37458;49.428;8.646;2022-08-19T01:13:26;14.63;;;13.13;;
51366;SDS011;37458;49.428;8.646;2022-08-19T01:15:56;16.10;;;13.70;;
51366;SDS011;37458;49.428;8.646;2022-08-19T01:18:24;15.83;;;13.50;;
51366;SDS011;37458;49.428;8.646;2022-08-19T01:20:50;15.33;;;13.60;;
51366;SDS011;37458;49.428;8.646;2022-08-19T01:23:17;16.10;;;13.70;;
51366;SDS011;37458;49.428;8.646;2022-08-19T01:25:50;16.53;;;14.70;;
51366;SDS011;37458;49.428;8.646;2022-08-19T01:28:21;15.80;;;14.10;;
51366;SDS011;37458;49.428;8.646;2022-08-19T01:30:47;22.53;;;14.17;;
51366;SDS011;37458;49.428;8.646;2022-08-19T01:33:13;15.80;;;14.20;;
51366;SDS011;37458;49.428;8.646;2022-08-19T01:35:39;16.80;;;13.93;;
51366;SDS011;37458;49.428;8.646;2022-08-19T01:38:07;16.70;;;13.90;;
51366;SDS011;37458;49.428;8.646;2022-08-19T01:40:35;15.97;;;14.37;;
51366;SDS011;37458;49.428;8.646;2022-08-19T01:43:03;16.30;;;13.97;;
51366;SDS011;37458;49.428;8.646;2022-08-19T01:45:29;18.10;;;15.23;;
51366;SDS011;37458;49.428;8.646;2022-08-19T01:47:56;15.97;;;14.37;;
51366;SDS011;37458;49.428;8.646;2022-08-19T01:50:23;18.27;;;14.63;;
51366;SDS011;37458;49.428;8.646;2022-08-19T01:52:49;17.00;;;14.43;;
51366;SDS011;37458;49.428;8.646;2022-08-19T01:55:17;17.30;;;15.10;;
51366;SDS011;37458;49.428;8.646;2022-08-19T01:57:48;16.27;;;14.20;;
51366;SDS011;37458;49.428;8.646;2022-08-19T02:00:16;15.87;;;14.27;;
51366;SDS011;37458;49.428;8.646;2022-08-19T02:02:43;15.23;;;13.67;;
51366;SDS011;37458;49.428;8.646;2022-08-19T02:05:09;16.53;;;14.73;;
51366;SDS011;37458;49.428;8.646;2022-08-19T02:07:36;16.23;;;14.57;;
51366;SDS011;37458;49.428;8.646;2022-08-19T02:10:03;16.00;;;14.37;;
51366;SDS011;37458;49.428;8.646;2022-08-19T02:12:30;15.67;;;14.00;;
51366;SDS011;37458;49.428;8.646;2022-08-19T02:14:56;17.03;;;15.23;;
51366;SDS011;37458;49.428;8.646;2022-08-19T02:17:22;16.30;;;14.60;;
51366;SDS011;37458;49.428;8.646;2022-08-19T02:19:48;16.27;;;14.57;;
51366;SDS011;37458;49.428;8.646;2022-08-19T02:22:14;15.37;;;13.80;;
51366;SDS011;37458;49.428;8.646;2022-08-19T02:24:40;15.97;;;14.40;;
51366;SDS011;37458;49.428;8.646;2022-08-19T02:27:06;15.90;;;14.30;;
51366;SDS011;37458;49.428;8.646;2022-08-19T02:29:32;15.23;;;13.73;;
51366;SDS011;37458;49.428;8.646;2022-08-19T02:31:58;16.00;;;14.30;;
51366;SDS011;37458;49.428;8.646;2022-08-19T02:34:24;19.27;;;14.47;;
51366;SDS011;37458;49.428;8.646;2022-08-19T02:36:50;15.40;;;13.80;;
51366;SDS011;37458;49.428;8.646;2022-08-19T02:39:16;16.57;;;14.87;;
51366;SDS011;37458;49.428;8.646;2022-08-19T02:41:42;17.13;;;15.13;;
51366;SDS011;37458;49.428;8.646;2022-08-19T02:44:09;16.63;;;14.93;;
51366;SDS011;37458;49.428;8.646;2022-08-19T02:46:35;19.53;;;15.27;;
51366;SDS011;37458;49.428;8.646;2022-08-19T02:49:03;18.43;;;15.50;;
51366;SDS011;37458;49.428;8.646;2022-08-19T02:51:34;19.10;;;16.00;;
51366;SDS011;37458;49.428;8.646;2022-08-19T02:54:01;17.73;;;14.70;;
51366;SDS011;37458;49.428;8.646;2022-08-19T02:56:27;17.60;;;15.80;;
51366;SDS011;37458;49.428;8.646;2022-08-19T02:58:57;18.20;;;15.67;;
51366;SDS011;37458;49.428;8.646;2022-08-19T03:01:24;19.70;;;16.20;;
51366;SDS011;37458;49.428;8.646;2022-08-19T03:03:52;17.60;;;15.80;;
51366;SDS011;37458;49.428;8.646;2022-08-19T03:06:18;16.43;;;14.70;;
51366;SDS011;37458;49.428;8.646;2022-08-19T03:08:46;17.43;;;15.63;;
